Irvine, KY

2:44 AM EDT on July 02, 2015 (GMT -0400)
Irvine, Ky. | | Change Station
CLOSE
Current Station
Personal Weather Station
Location: Irvine, KY
Elevation: 719 ft
Nearby Weather Stations

Elev 719 ft 37.69 °N, 83.96 °W | Updated 7 seconds ago

Overcast
Overcast
70.2 °F
Feels Like 70.2 °F
N
0.0
Wind Variable Wind from ENE
Gusts 1.0 mph

Today
High -- | Low -- °F
--% Chance of Precip.
Yesterday
High -- | Low -- °F
Precip. -- in
6:18 AM 9:01 PM
Full, 100% visible
Pressure 29.96 in
Visibility 7.0 miles
Clouds Scattered Clouds 4400 ft
Mostly Cloudy 5000 ft
Overcast 6500 ft
Dew Point 68 °F
Humidity 92%
Rainfall 0.02 in
Snow Depth Not available.
UV 0 out of 12
Pollen 3.00 out of 12
Air Quality Not available.
Flu Activity Not available.
METAR KI39 020355Z AUTO 20003KT 7SM SCT044 BKN050 OVC065 21/19 A2996 RMK AO2

More Conditions Fewer Conditions

Pressure 29.96 in
Visibility 7.0 miles
Clouds Scattered Clouds 4400 ft
Mostly Cloudy 5000 ft
Overcast 6500 ft
Dew Point 68 °F
Humidity 92%
Rainfall 0.02 in
Snow Depth Not available.
UV 0 out of 12
Pollen 3.00 out of 12
Air Quality Not available.
Flu Activity Not available.
METAR KI39 020355Z AUTO 20003KT 7SM SCT044 BKN050 OVC065 21/19 A2996 RMK AO2

More Conditions Fewer Conditions

10-Day Weather Forecast

×

Almanac

Astronomy

Jul. 02, 2015 Rise Set
Actual Time
Civil Twilight
Nautical Twilight
Astronomical Twilight
Moon
Length of Visible Light
Length of Day
Tomorrow will be .
, % of the Moon is Illuminated

Today's Extremes

State Highs State Lows

Community

WunderPhotos

Upload Photos

1,834,422 photos uploaded!

WunderBlogs® & News

Nearby

Air Quality

  Air Quality AQ Index Pollutant
Not available.

Snow Depth

Station Depth Elevation

Earthquake Activity

City Distance Mag. Time & Date
Minimum magnitude displayed is 2.5.

Coastal Water Temperatures

Place Temperature

Stations

Nearby Weather Stations

Station Location Temp. Windchill Dew Point Humidity Wind Precip. Elev Updated Type